DNKN/KAN METAR and TAF weather

Enter ICAO airport designator
Station Type Date Time Source
DNKN METAR 2021/01/16 02:00 UTC NOAA

DNKN 160200Z 31003KT 6000 NSC 13/06 Q1014 NOSIG


Station Type Date Time Source
DNKN Decoded METAR 2021/01/16 02:00 UTC NOAA

Kano, Nigeria (DNKN) 12-03N 008-32E 481M
Jan 15, 2021 - 09:00 PM EST / 2021.01.16 0200 UTC
Wind: from the NW (310 degrees) at 3 MPH (3 KT):0
Visibility: 3 mile(s):0
Temperature: 55 F (13 C)
Dew Point: 42 F (6 C)
Relative Humidity: 62%
Pressure (altimeter): 29.94 in. Hg (1014 hPa)
ob: DNKN 160200Z 31003KT 6000 NSC 13/06 Q1014 NOSIG
cycle: 2

Station Type Date Time Source
DNKN TAF 2021/01/15 18:21 UTC NOAA

TAF DNKN 151700Z 1518/1624 06010KT 5000 HZ NSC
TEMPO 1607/1611 3000

Example: see airport list